Time;durP1;ratioP1;P1;durP2;ratioP2;P2;SDS_P1;SDS_P2;PMS_P1;PMS_P2;Temp;Humidity;BMP_temperature;BMP_pressure;BME280_temperature;BME280_humidity;BME280_pressure;Samples;Min_cycle;Max_cycle;Signal;HPM_P1;HPM_P2
2023/04/11 00:00:16;;;;;;;0.50;0.50;;;9.10;99.90;;;;;;5048267;28;20245;-78
2023/04/11 00:02:43;;;;;;;0.50;0.40;;;9.20;99.90;;;;;;5056580;28;20205;-79
2023/04/11 00:05:10;;;;;;;0.70;0.63;;;9.20;99.90;;;;;;5056027;28;20225;-79
2023/04/11 00:07:38;;;;;;;0.95;0.73;;;9.30;99.90;;;;;;5056145;28;20195;-80
2023/04/11 00:10:07;;;;;;;0.50;0.50;;;9.30;99.90;;;;;;5056328;28;20237;-80
2023/04/11 00:12:33;;;;;;;0.50;0.50;;;9.30;99.90;;;;;;5055689;28;20281;-80
2023/04/11 00:15:00;;;;;;;1.70;0.70;;;9.30;99.90;;;;;;5055406;28;20286;-80
2023/04/11 00:17:30;;;;;;;1.30;0.52;;;9.30;99.90;;;;;;5055713;28;20733;-80
2023/04/11 00:20:00;;;;;;;0.75;0.65;;;9.30;99.90;;;;;;5055570;28;20581;-79
2023/04/11 00:22:27;;;;;;;0.60;0.50;;;9.40;99.90;;;;;;5056164;28;20198;-80
2023/04/11 00:24:55;;;;;;;0.50;0.40;;;9.40;99.90;;;;;;5055264;28;20234;-79
2023/04/11 00:27:22;;;;;;;0.50;0.50;;;9.40;99.90;;;;;;5051521;28;20222;-80
2023/04/11 00:29:51;;;;;;;0.75;0.75;;;9.40;99.90;;;;;;5051665;28;20281;-80
2023/04/11 00:32:18;;;;;;;0.50;0.40;;;9.50;99.90;;;;;;5047508;28;20199;-81
2023/04/11 00:34:45;;;;;;;3.65;0.90;;;9.50;99.90;;;;;;5055537;28;20241;-80
2023/04/11 00:37:13;;;;;;;1.10;0.65;;;9.50;99.90;;;;;;5055016;28;20290;-78
2023/04/11 00:39:39;;;;;;;0.70;0.60;;;9.50;99.90;;;;;;5055949;28;20250;-79
2023/04/11 00:42:08;;;;;;;0.60;0.60;;;9.50;99.90;;;;;;5055291;28;20202;-80
2023/04/11 00:44:36;;;;;;;0.50;0.50;;;9.60;99.90;;;;;;5055131;28;20245;-78
2023/04/11 00:47:05;;;;;;;1.50;0.80;;;9.60;99.90;;;;;;5039331;28;20195;-81
2023/04/11 00:49:32;;;;;;;1.35;0.93;;;9.60;99.90;;;;;;5056152;28;20604;-80
2023/04/11 00:51:59;;;;;;;0.50;0.40;;;9.60;99.90;;;;;;5055323;28;20202;-80
2023/04/11 00:54:28;;;;;;;0.60;0.50;;;9.70;99.90;;;;;;5055188;28;20584;-79
2023/04/11 00:56:57;;;;;;;0.80;0.60;;;9.70;99.90;;;;;;5045857;28;20571;-76
2023/04/11 00:59:27;;;;;;;1.40;0.75;;;9.70;99.90;;;;;;5054703;28;20776;-79
2023/04/11 01:01:54;;;;;;;0.50;0.40;;;9.60;99.90;;;;;;5055235;28;20205;-79
2023/04/11 01:04:21;;;;;;;1.35;0.70;;;9.60;99.90;;;;;;5046946;28;20224;-80
2023/04/11 01:06:51;;;;;;;3.63;2.05;;;9.60;99.90;;;;;;5054940;28;20202;-79
2023/04/11 01:09:19;;;;;;;0.68;0.68;;;9.60;99.90;;;;;;5055341;28;20194;-80
2023/04/11 01:11:47;;;;;;;3.42;1.17;;;9.60;99.90;;;;;;5055644;28;20201;-79
2023/04/11 01:14:14;;;;;;;2.17;0.73;;;9.60;99.90;;;;;;5054658;28;20225;-80
2023/04/11 01:16:45;;;;;;;0.60;0.60;;;9.50;99.90;;;;;;5055209;28;20198;-79
2023/04/11 01:19:16;;;;;;;1.23;1.13;;;9.50;99.90;;;;;;5054350;28;20226;-79
2023/04/11 01:21:44;;;;;;;2.25;1.55;;;9.60;99.90;;;;;;5055393;28;20203;-80
2023/04/11 01:24:13;;;;;;;0.60;0.50;;;9.60;99.90;;;;;;5054282;28;20760;-80
2023/04/11 01:26:40;;;;;;;0.50;0.40;;;9.60;99.90;;;;;;5054347;28;20195;-79
2023/04/11 01:29:06;;;;;;;0.50;0.50;;;9.60;99.90;;;;;;5054965;28;20194;-79
2023/04/11 01:31:33;;;;;;;3.90;1.23;;;9.60;99.90;;;;;;5050729;28;20634;-80
2023/04/11 01:34:01;;;;;;;4.32;1.85;;;9.70;99.90;;;;;;5051815;28;20229;-80
2023/04/11 01:36:29;;;;;;;0.50;0.40;;;9.70;99.90;;;;;;5054587;28;20717;-80
2023/04/11 01:38:57;;;;;;;1.40;1.30;;;9.70;99.90;;;;;;5054892;28;20288;-78
2023/04/11 01:41:26;;;;;;;3.40;1.25;;;9.70;99.90;;;;;;5054498;28;20236;-81
2023/04/11 01:43:54;;;;;;;0.50;0.40;;;9.70;99.90;;;;;;5046597;28;20191;-78
2023/04/11 01:46:21;;;;;;;0.50;0.40;;;9.70;99.90;;;;;;5054393;28;20199;-80
2023/04/11 01:48:49;;;;;;;1.88;0.93;;;9.80;99.90;;;;;;5048620;28;20197;-81
2023/04/11 01:51:16;;;;;;;0.75;0.60;;;9.80;99.90;;;;;;5055055;28;20206;-79
2023/04/11 01:53:46;;;;;;;0.50;0.40;;;9.70;99.90;;;;;;5049509;28;20264;-80
2023/04/11 01:56:13;;;;;;;0.50;0.40;;;9.70;99.90;;;;;;5052753;28;20305;-80
2023/04/11 01:58:41;;;;;;;0.50;0.40;;;9.60;99.90;;;;;;5056146;28;20202;-81
2023/04/11 02:01:08;;;;;;;0.77;0.70;;;9.60;99.90;;;;;;5056048;28;20282;-80
2023/04/11 02:03:35;;;;;;;1.67;1.58;;;9.60;99.90;;;;;;5050495;28;20701;-80
2023/04/11 02:06:02;;;;;;;0.50;0.40;;;9.50;99.90;;;;;;5052338;28;20214;-79
2023/04/11 02:08:29;;;;;;;1.05;0.90;;;9.50;99.90;;;;;;5057001;28;20230;-80
2023/04/11 02:10:56;;;;;;;4.65;1.20;;;9.60;99.90;;;;;;5103744;22;20257;-77
2023/04/11 02:13:23;;;;;;;0.52;0.47;;;9.50;99.90;;;;;;5040018;28;20281;-78
2023/04/11 02:15:51;;;;;;;4.63;1.77;;;9.60;99.90;;;;;;5054827;28;20716;-78
2023/04/11 02:18:18;;;;;;;3.05;1.75;;;9.60;99.90;;;;;;5054954;28;20293;-78
2023/04/11 02:20:44;;;;;;;0.80;0.80;;;9.60;99.90;;;;;;5055382;28;20297;-77
2023/04/11 02:23:11;;;;;;;0.60;0.60;;;9.60;99.90;;;;;;5055095;28;20289;-77
2023/04/11 02:25:38;;;;;;;0.63;0.63;;;9.60;99.90;;;;;;5054526;28;20565;-78
2023/04/11 02:28:05;;;;;;;0.70;0.70;;;9.50;99.90;;;;;;5054884;28;20203;-77
2023/04/11 02:30:32;;;;;;;7.43;1.35;;;9.40;99.90;;;;;;5055009;28;20294;-78
2023/04/11 02:33:00;;;;;;;1.08;0.60;;;9.40;99.90;;;;;;5055213;28;20285;-77
2023/04/11 02:35:27;;;;;;;5.32;0.85;;;9.30;99.90;;;;;;5047194;28;20220;-78
2023/04/11 02:37:54;;;;;;;7.60;2.08;;;9.30;99.90;;;;;;5054755;28;20205;-77
2023/04/11 02:40:21;;;;;;;5.68;1.80;;;9.20;99.90;;;;;;5054529;28;20241;-78
2023/04/11 02:42:47;;;;;;;3.47;1.95;;;9.20;99.90;;;;;;5054961;28;20201;-78
2023/04/11 02:45:14;;;;;;;3.88;1.05;;;9.20;99.90;;;;;;5054414;28;20198;-77
2023/04/11 02:47:41;;;;;;;2.85;2.75;;;9.20;99.90;;;;;;5055004;28;20195;-78
2023/04/11 02:50:10;;;;;;;0.88;0.82;;;9.20;99.90;;;;;;5054715;28;20262;-77
2023/04/11 02:52:41;;;;;;;0.70;0.68;;;9.20;99.90;;;;;;5055439;28;20281;-77
2023/04/11 02:55:08;;;;;;;0.60;0.60;;;9.20;99.90;;;;;;5054859;28;20198;-77
2023/04/11 02:57:35;;;;;;;0.50;0.40;;;9.20;99.90;;;;;;5054467;28;20199;-78
2023/04/11 03:00:05;;;;;;;1.67;1.25;;;9.20;99.90;;;;;;5054668;28;20254;-76
2023/04/11 03:02:32;;;;;;;0.50;0.40;;;9.20;99.90;;;;;;5054782;28;20195;-78
2023/04/11 03:05:02;;;;;;;1.05;0.93;;;9.30;99.90;;;;;;5054795;28;20201;-77
2023/04/11 03:07:30;;;;;;;0.60;0.50;;;9.30;99.90;;;;;;5054595;28;20198;-78
2023/04/11 03:09:57;;;;;;;0.50;0.40;;;9.30;99.90;;;;;;5054471;28;20238;-78
2023/04/11 03:12:25;;;;;;;0.98;0.70;;;9.30;99.90;;;;;;5054316;28;20191;-78
2023/04/11 03:14:52;;;;;;;0.50;0.40;;;9.30;99.90;;;;;;5054803;28;20632;-77
2023/04/11 03:17:18;;;;;;;2.83;1.30;;;9.30;99.90;;;;;;5054282;28;20194;-78
2023/04/11 03:19:45;;;;;;;0.73;0.73;;;9.30;99.90;;;;;;5053571;28;20215;-78
2023/04/11 03:22:12;;;;;;;1.45;1.35;;;9.30;99.90;;;;;;5054401;28;20222;-77
2023/04/11 03:24:41;;;;;;;0.50;0.40;;;9.30;99.90;;;;;;5054094;28;20195;-76
2023/04/11 03:27:08;;;;;;;3.90;1.05;;;9.30;99.90;;;;;;5054139;28;20203;-77
2023/04/11 03:29:35;;;;;;;4.40;2.05;;;9.30;99.90;;;;;;5054533;28;20187;-78
2023/04/11 03:32:02;;;;;;;0.50;0.50;;;9.30;99.90;;;;;;5054309;28;20199;-78
2023/04/11 03:34:28;;;;;;;1.25;0.77;;;9.20;99.90;;;;;;5045804;28;20199;-77
2023/04/11 03:36:55;;;;;;;3.53;1.25;;;9.20;99.90;;;;;;5053813;28;20372;-77
2023/04/11 03:39:22;;;;;;;1.08;0.50;;;9.20;99.90;;;;;;5053663;28;20198;-78
2023/04/11 03:41:51;;;;;;;5.63;2.25;;;9.10;99.90;;;;;;5053946;28;20214;-78
2023/04/11 03:44:17;;;;;;;0.50;0.40;;;9.20;99.90;;;;;;5053889;28;20199;-78
2023/04/11 03:46:44;;;;;;;1.63;1.52;;;9.20;99.90;;;;;;5053508;28;20290;-78
2023/04/11 03:49:11;;;;;;;0.70;0.70;;;9.10;99.90;;;;;;5053803;28;20199;-77
2023/04/11 03:51:38;;;;;;;0.55;0.55;;;9.20;99.90;;;;;;5054120;28;20215;-77
2023/04/11 03:54:05;;;;;;;0.50;0.50;;;9.20;99.90;;;;;;5053853;28;20209;-76
2023/04/11 03:56:32;;;;;;;4.00;1.70;;;9.20;99.90;;;;;;5053431;28;20194;-77
2023/04/11 03:59:00;;;;;;;4.68;1.98;;;9.20;99.90;;;;;;5054167;28;20293;-78
2023/04/11 04:01:27;;;;;;;17.42;3.72;;;9.20;99.90;;;;;;5054002;28;20593;-78
2023/04/11 04:03:54;;;;;;;2.97;2.17;;;9.20;99.90;;;;;;5054758;28;20203;-77
2023/04/11 04:06:20;;;;;;;0.50;0.50;;;9.20;99.90;;;;;;5053558;28;20234;-77
2023/04/11 04:08:47;;;;;;;1.35;1.25;;;9.20;99.90;;;;;;5054934;28;20203;-79
2023/04/11 04:11:14;;;;;;;2.60;2.40;;;9.20;99.90;;;;;;5054088;28;20229;-78
2023/04/11 04:13:41;;;;;;;1.00;0.50;;;9.20;99.90;;;;;;5054896;28;20234;-78
2023/04/11 04:16:09;;;;;;;0.50;0.50;;;9.20;99.90;;;;;;5054077;28;20630;-78
2023/04/11 04:18:36;;;;;;;3.05;1.23;;;9.20;99.90;;;;;;5054101;28;20198;-78
2023/04/11 04:21:05;;;;;;;1.13;0.80;;;9.20;99.90;;;;;;5053806;28;20229;-78
2023/04/11 04:23:32;;;;;;;0.50;0.40;;;9.10;99.90;;;;;;5054304;28;20198;-78
2023/04/11 04:26:01;;;;;;;7.65;1.85;;;9.10;99.90;;;;;;5053452;28;20360;-77
2023/04/11 04:28:27;;;;;;;4.90;1.17;;;9.00;99.90;;;;;;5053526;28;20657;-78
2023/04/11 04:30:56;;;;;;;27.45;4.22;;;9.00;99.90;;;;;;5053570;28;20664;-78
2023/04/11 04:33:25;;;;;;;1.70;0.85;;;8.90;99.90;;;;;;5052913;28;20244;-78
2023/04/11 04:35:56;;;;;;;0.90;0.90;;;8.90;99.90;;;;;;5057042;28;20195;-78
2023/04/11 04:38:24;;;;;;;4.50;3.00;;;8.90;99.90;;;;;;5053713;28;20203;-78
2023/04/11 04:40:53;;;;;;;0.50;0.50;;;8.90;99.90;;;;;;5053505;28;20682;-78
2023/04/11 04:43:23;;;;;;;5.47;1.05;;;8.90;99.90;;;;;;5053880;28;20195;-77
2023/04/11 04:45:49;;;;;;;2.33;2.13;;;8.80;99.90;;;;;;5053864;28;20195;-77
2023/04/11 04:48:17;;;;;;;0.60;0.60;;;8.80;99.90;;;;;;5052383;28;20669;-78
2023/04/11 04:50:45;;;;;;;2.05;1.15;;;8.80;99.90;;;;;;5052273;28;20214;-78
2023/04/11 04:53:12;;;;;;;0.60;0.60;;;8.80;99.90;;;;;;5051869;28;20203;-78
2023/04/11 04:55:39;;;;;;;1.95;1.20;;;8.70;99.90;;;;;;5052753;28;20222;-79
2023/04/11 04:58:05;;;;;;;0.50;0.40;;;8.70;99.90;;;;;;5052292;28;20218;-78
2023/04/11 05:00:33;;;;;;;0.60;0.60;;;8.70;99.90;;;;;;5052245;28;20218;-79
2023/04/11 05:03:04;;;;;;;0.50;0.40;;;8.60;99.90;;;;;;5052158;28;20198;-78
2023/04/11 05:05:31;;;;;;;3.90;0.98;;;8.50;99.90;;;;;;5053077;28;20535;-79
2023/04/11 05:07:59;;;;;;;1.05;1.00;;;8.40;99.90;;;;;;5054088;28;20206;-79
2023/04/11 05:10:26;;;;;;;0.93;0.93;;;8.40;99.90;;;;;;5051329;28;20709;-77
2023/04/11 05:12:54;;;;;;;7.63;2.40;;;8.30;99.90;;;;;;5052259;28;20195;-77
2023/04/11 05:15:22;;;;;;;1.73;1.08;;;8.30;99.90;;;;;;5049991;28;20195;-76
2023/04/11 05:17:49;;;;;;;0.50;0.50;;;8.30;99.90;;;;;;5046895;28;20234;-76
2023/04/11 05:20:16;;;;;;;5.32;1.58;;;8.30;99.90;;;;;;5050952;28;20222;-76
2023/04/11 05:22:43;;;;;;;1.63;1.35;;;8.40;99.90;;;;;;5051334;28;20199;-77
2023/04/11 05:25:11;;;;;;;0.50;0.40;;;8.40;99.90;;;;;;5050584;28;20202;-76
2023/04/11 05:27:38;;;;;;;4.30;1.95;;;8.50;99.90;;;;;;5051203;28;20230;-78
2023/04/11 05:30:06;;;;;;;0.50;0.40;;;8.60;99.90;;;;;;5051541;28;20745;-77
2023/04/11 05:32:33;;;;;;;0.60;0.50;;;8.70;99.90;;;;;;5051604;28;20689;-77
2023/04/11 05:35:00;;;;;;;4.20;2.20;;;8.70;99.90;;;;;;5050890;28;20230;-77
2023/04/11 05:37:30;;;;;;;0.80;0.80;;;8.70;99.90;;;;;;5050615;28;20301;-76
2023/04/11 05:39:57;;;;;;;2.45;1.42;;;8.70;99.90;;;;;;5051948;28;20217;-78
2023/04/11 05:42:25;;;;;;;8.13;1.65;;;8.70;99.90;;;;;;5050865;28;20198;-78
2023/04/11 05:44:52;;;;;;;2.80;1.20;;;8.70;99.90;;;;;;5050931;28;20227;-77
2023/04/11 05:47:19;;;;;;;1.15;0.88;;;8.90;99.90;;;;;;5050781;28;20209;-77
2023/04/11 05:49:47;;;;;;;3.25;1.15;;;9.30;99.90;;;;;;5050526;28;20213;-77
2023/04/11 05:52:14;;;;;;;2.20;1.60;;;9.50;99.90;;;;;;5050773;28;20194;-77
2023/04/11 05:54:40;;;;;;;3.35;3.13;;;9.50;99.90;;;;;;5049675;28;20217;-76
2023/04/11 05:57:07;;;;;;;0.60;0.50;;;9.40;99.90;;;;;;5050674;28;20604;-77
2023/04/11 05:59:36;;;;;;;0.60;0.60;;;9.30;99.90;;;;;;5050682;28;20304;-76
2023/04/11 06:02:03;;;;;;;1.77;1.52;;;9.30;99.90;;;;;;5050482;28;20300;-77
2023/04/11 06:04:30;;;;;;;1.50;1.40;;;9.20;99.90;;;;;;5050414;28;20260;-77
2023/04/11 06:06:57;;;;;;;8.77;1.55;;;9.20;99.90;;;;;;5050345;28;20720;-77
2023/04/11 06:09:24;;;;;;;1.77;1.05;;;9.20;99.90;;;;;;5050637;28;20289;-77
2023/04/11 06:11:51;;;;;;;4.72;2.40;;;9.20;99.90;;;;;;5050512;28;20214;-75
2023/04/11 06:14:17;;;;;;;0.70;0.60;;;9.40;99.90;;;;;;5050378;28;20281;-76
2023/04/11 06:16:45;;;;;;;0.50;0.40;;;9.70;99.90;;;;;;5050799;28;20289;-77
2023/04/11 06:19:12;;;;;;;0.70;0.70;;;10.60;99.90;;;;;;5052042;28;20589;-76
2023/04/11 06:21:39;;;;;;;0.50;0.50;;;11.10;99.90;;;;;;5043311;28;20222;-78
2023/04/11 06:24:09;;;;;;;0.93;0.50;;;11.20;99.90;;;;;;5050711;28;20210;-78
2023/04/11 06:26:36;;;;;;;0.93;0.93;;;11.10;99.90;;;;;;5049906;28;20199;-76
2023/04/11 06:29:05;;;;;;;1.20;1.13;;;10.80;99.90;;;;;;5050379;28;20199;-76
2023/04/11 06:31:32;;;;;;;0.65;0.52;;;10.70;99.90;;;;;;5050239;28;20573;-76
2023/04/11 06:34:01;;;;;;;0.50;0.40;;;10.90;99.90;;;;;;5050274;28;20679;-76
2023/04/11 06:36:28;;;;;;;0.77;0.77;;;10.90;99.90;;;;;;5049845;28;20199;-76
2023/04/11 06:38:54;;;;;;;8.23;0.98;;;11.10;99.90;;;;;;5050280;28;20191;-77
2023/04/11 06:41:21;;;;;;;0.70;0.63;;;11.40;99.90;;;;;;5049845;28;20232;-77
2023/04/11 06:43:48;;;;;;;0.50;0.40;;;11.90;99.90;;;;;;5050404;28;20741;-77
2023/04/11 06:46:15;;;;;;;1.42;1.10;;;12.30;99.90;;;;;;5049857;28;20198;-76
2023/04/11 06:48:42;;;;;;;1.45;1.30;;;12.50;99.90;;;;;;5050330;28;20199;-77
2023/04/11 06:51:10;;;;;;;0.63;0.63;;;12.90;99.90;;;;;;5050471;28;20227;-77
2023/04/11 06:53:37;;;;;;;1.37;0.67;;;13.60;99.90;;;;;;5049960;28;20287;-78
2023/04/11 06:56:04;;;;;;;1.90;0.50;;;13.30;99.90;;;;;;5052089;28;20444;-77
2023/04/11 06:58:31;;;;;;;5.20;0.83;;;12.70;99.90;;;;;;5053664;28;20498;-77
2023/04/11 07:00:58;;;;;;;1.02;0.82;;;12.60;99.90;;;;;;5053463;28;20489;-77
2023/04/11 07:03:25;;;;;;;2.63;0.80;;;13.00;99.90;;;;;;5053649;28;20569;-78
2023/04/11 07:05:52;;;;;;;1.57;1.47;;;12.90;99.90;;;;;;5053655;28;20786;-77
2023/04/11 07:08:20;;;;;;;1.60;0.60;;;12.30;99.90;;;;;;5053273;28;20447;-77
2023/04/11 07:10:47;;;;;;;0.50;0.40;;;12.40;99.90;;;;;;5052960;28;20952;-78
2023/04/11 07:13:13;;;;;;;3.00;1.40;;;12.20;99.90;;;;;;5053273;28;20618;-77
2023/04/11 07:15:40;;;;;;;0.50;0.40;;;12.00;99.90;;;;;;5048314;28;20195;-77
2023/04/11 07:18:07;;;;;;;7.32;0.80;;;11.70;99.90;;;;;;5054074;28;20203;-77
2023/04/11 07:20:34;;;;;;;0.57;0.50;;;11.90;99.90;;;;;;5053332;28;20224;-77
2023/04/11 07:23:02;;;;;;;1.90;1.73;;;12.20;99.90;;;;;;5053807;28;20205;-77
2023/04/11 07:25:32;;;;;;;0.50;0.50;;;12.20;99.90;;;;;;5052928;28;20720;-78
2023/04/11 07:27:59;;;;;;;0.50;0.40;;;12.20;99.90;;;;;;5053745;28;20272;-76
2023/04/11 07:30:26;;;;;;;0.50;0.40;;;12.00;99.90;;;;;;5053684;28;20471;-77
2023/04/11 07:32:53;;;;;;;1.13;0.70;;;12.20;99.90;;;;;;5051718;28;20256;-76
2023/04/11 07:35:20;;;;;;;0.50;0.40;;;12.30;99.90;;;;;;5053080;28;20233;-77
2023/04/11 07:37:47;;;;;;;2.05;1.15;;;12.80;99.90;;;;;;5053281;28;20195;-77
2023/04/11 07:40:14;;;;;;;2.65;2.45;;;12.70;99.90;;;;;;5054978;28;20218;-76
2023/04/11 07:42:42;;;;;;;20.70;3.17;;;12.30;99.90;;;;;;5054129;28;20589;-76
2023/04/11 07:45:09;;;;;;;0.50;0.40;;;12.10;99.90;;;;;;5053565;28;20199;-77
2023/04/11 07:47:36;;;;;;;0.60;0.40;;;13.00;99.90;;;;;;5052635;28;20194;-76
2023/04/11 07:50:03;;;;;;;1.15;1.08;;;13.10;99.90;;;;;;5054479;28;20310;-77
2023/04/11 07:52:30;;;;;;;1.90;0.73;;;13.30;99.90;;;;;;5053066;28;20190;-76
2023/04/11 07:54:57;;;;;;;0.50;0.40;;;13.20;99.90;;;;;;5053082;28;20537;-75
2023/04/11 07:57:24;;;;;;;1.80;0.70;;;13.10;99.90;;;;;;5053763;28;20581;-77
2023/04/11 07:59:52;;;;;;;3.23;2.20;;;13.70;99.90;;;;;;5053417;28;20750;-78
2023/04/11 08:02:19;;;;;;;1.30;1.20;;;13.40;99.90;;;;;;5053321;28;20561;-79
2023/04/11 08:04:46;;;;;;;0.70;0.60;;;13.50;99.90;;;;;;5045677;28;20530;-77
2023/04/11 08:07:12;;;;;;;0.50;0.40;;;13.70;99.90;;;;;;5053207;28;20443;-78
2023/04/11 08:09:41;;;;;;;2.20;0.73;;;14.80;99.90;;;;;;5052986;28;20447;-77
2023/04/11 08:12:08;;;;;;;0.60;0.53;;;15.30;99.90;;;;;;5094939;22;20490;-79
2023/04/11 08:14:35;;;;;;;2.47;2.27;;;16.30;99.90;;;;;;5019436;28;20476;-81
2023/04/11 08:17:03;;;;;;;2.93;1.30;;;17.50;96.80;;;;;;5027594;28;20443;-80
2023/04/11 08:19:31;;;;;;;0.77;0.57;;;17.50;92.60;;;;;;5023818;28;20465;-81
2023/04/11 08:21:58;;;;;;;1.57;0.57;;;17.30;92.70;;;;;;5033413;28;20508;-79
2023/04/11 08:24:24;;;;;;;0.90;0.70;;;17.80;91.90;;;;;;5035350;28;20452;-80
2023/04/11 08:26:51;;;;;;;2.70;0.90;;;18.10;86.60;;;;;;5034628;28;20493;-79
2023/04/11 08:29:18;;;;;;;0.97;0.60;;;17.50;87.50;;;;;;5036004;28;20442;-81
2023/04/11 08:31:45;;;;;;;4.57;1.50;;;17.50;90.10;;;;;;5031887;28;20953;-80
2023/04/11 08:34:13;;;;;;;0.60;0.50;;;16.70;85.70;;;;;;5046579;28;20569;-80
2023/04/11 08:36:41;;;;;;;0.60;0.50;;;16.20;89.10;;;;;;5036002;28;20441;-81
2023/04/11 08:39:08;;;;;;;0.50;0.40;;;16.60;85.80;;;;;;5034787;28;20445;-81
2023/04/11 08:41:36;;;;;;;0.50;0.30;;;16.30;87.40;;;;;;5035376;28;20573;-81
2023/04/11 08:44:03;;;;;;;2.33;0.60;;;17.40;85.90;;;;;;5024016;28;20951;-81
2023/04/11 08:46:32;;;;;;;0.50;0.33;;;17.90;81.00;;;;;;5037214;28;20540;-82
2023/04/11 08:48:58;;;;;;;0.50;0.40;;;17.00;81.90;;;;;;5038350;28;20438;-81
2023/04/11 08:51:27;;;;;;;0.90;0.63;;;16.80;83.70;;;;;;5034507;28;20990;-81
2023/04/11 08:53:58;;;;;;;3.33;0.70;;;15.70;84.70;;;;;;5025277;28;20466;-80
2023/04/11 08:56:25;;;;;;;0.60;0.57;;;14.80;86.00;;;;;;5033927;28;20520;-82
2023/04/11 08:58:53;;;;;;;0.70;0.53;;;14.30;89.20;;;;;;5033593;28;20461;-82
2023/04/11 09:01:29;;;;;;;1.13;0.63;;;14.40;90.00;;;;;;5023596;28;20482;-83
2023/04/11 09:03:56;;;;;;;0.60;0.50;;;14.40;86.90;;;;;;5021988;28;20461;-82
2023/04/11 09:06:22;;;;;;;2.70;1.13;;;14.30;87.20;;;;;;5035396;28;20442;-82
2023/04/11 09:08:50;;;;;;;0.50;0.50;;;14.80;88.70;;;;;;5016857;28;20443;-81
2023/04/11 09:11:18;;;;;;;2.80;0.70;;;15.10;88.80;;;;;;5036146;28;20472;-80
2023/04/11 09:13:44;;;;;;;2.20;1.10;;;15.60;88.40;;;;;;5046452;28;20917;-81
2023/04/11 09:16:14;;;;;;;1.20;1.10;;;15.00;85.20;;;;;;5030401;28;20492;-81
2023/04/11 09:18:42;;;;;;;2.20;1.07;;;14.30;90.60;;;;;;5034865;28;20532;-83
2023/04/11 09:21:10;;;;;;;0.83;0.60;;;15.30;90.00;;;;;;5038875;28;20438;-80
2023/04/11 09:23:38;;;;;;;2.83;0.83;;;16.10;85.20;;;;;;5025159;28;20453;-83
2023/04/11 09:26:08;;;;;;;0.70;0.40;;;16.50;80.30;;;;;;5029290;28;20614;-79
2023/04/11 09:28:41;;;;;;;0.50;0.30;;;16.60;80.60;;;;;;5034586;28;20473;-81
2023/04/11 09:31:09;;;;;;;0.50;0.40;;;17.40;81.20;;;;;;5023190;28;20447;-80
2023/04/11 09:33:36;;;;;;;2.63;0.93;;;17.90;74.20;;;;;;5036465;28;20437;-81
2023/04/11 09:36:18;;;;;;;0.60;0.50;;;17.20;74.90;;;;;;5046507;28;20465;-80
2023/04/11 09:38:47;;;;;;;0.60;0.50;;;17.10;74.50;;;;;;5026285;28;20447;-80
2023/04/11 09:41:28;;;;;;;0.97;0.40;;;17.00;74.60;;;;;;5041578;28;20949;-81
2023/04/11 09:43:55;;;;;;;0.63;0.57;;;17.70;77.10;;;;;;5034304;28;20457;-80
2023/04/11 09:46:22;;;;;;;0.50;0.40;;;17.80;70.90;;;;;;5034381;28;21029;-80
2023/04/11 09:48:50;;;;;;;0.87;0.50;;;18.20;71.40;;;;;;5046510;28;20443;-80
2023/04/11 09:51:19;;;;;;;4.77;1.27;;;18.60;69.30;;;;;;5044513;28;20458;-81
2023/04/11 09:53:46;;;;;;;1.03;0.73;;;19.20;65.70;;;;;;5024147;28;20443;-81
2023/04/11 09:56:13;;;;;;;1.93;0.83;;;17.80;65.00;;;;;;5038190;28;20532;-82
2023/04/11 09:58:41;;;;;;;0.53;0.43;;;17.40;69.60;;;;;;5029815;28;20443;-80
2023/04/11 10:01:10;;;;;;;0.60;0.50;;;17.30;70.70;;;;;;5044999;28;20434;-82
2023/04/11 10:03:38;;;;;;;3.30;3.20;;;18.00;68.40;;;;;;5037018;28;20504;-82
2023/04/11 10:06:09;;;;;;;2.10;0.73;;;19.20;71.10;;;;;;5046658;28;20438;-79
2023/04/11 10:08:40;;;;;;;1.27;0.93;;;20.00;64.40;;;;;;5036238;28;20434;-81
2023/04/11 10:11:10;;;;;;;2.60;1.50;;;20.10;62.70;;;;;;5037643;28;20472;-81
2023/04/11 10:13:39;;;;;;;5.23;1.17;;;18.90;61.70;;;;;;5044493;28;20442;-81
2023/04/11 10:16:09;;;;;;;0.50;0.40;;;18.00;63.40;;;;;;5045691;28;20526;-80
2023/04/11 10:18:36;;;;;;;1.23;1.23;;;17.30;65.90;;;;;;5036509;28;20439;-84
2023/04/11 10:21:04;;;;;;;3.13;1.40;;;16.90;68.80;;;;;;5045438;28;20473;-82
2023/04/11 10:24:11;;;;;;;1.60;1.00;;;17.40;69.70;;;;;;5045741;28;20465;-81
2023/04/11 10:26:49;;;;;;;0.60;0.50;;;17.70;65.50;;;;;;5045147;28;21208;-82
2023/04/11 10:29:49;;;;;;;2.00;0.53;;;16.90;66.10;;;;;;5043496;28;20520;-81
2023/04/11 10:32:25;;;;;;;1.63;1.07;;;17.10;65.90;;;;;;5019995;28;20497;-82
2023/04/11 10:35:30;;;;;;;0.60;0.60;;;17.40;64.00;;;;;;5039393;28;20509;-83
2023/04/11 10:37:57;;;;;;;1.13;0.70;;;16.50;64.20;;;;;;5022651;28;20460;-82
2023/04/11 10:40:25;;;;;;;1.67;0.80;;;16.40;66.40;;;;;;5037281;28;20442;-81
2023/04/11 10:42:53;;;;;;;0.50;0.40;;;17.00;64.40;;;;;;5029863;28;20572;-82
2023/04/11 10:45:23;;;;;;;1.80;1.27;;;17.10;65.30;;;;;;5030759;28;20532;-83
2023/04/11 10:48:06;;;;;;;0.60;0.40;;;17.10;64.70;;;;;;5038611;28;20453;-82
2023/04/11 10:50:35;;;;;;;1.53;1.20;;;15.90;67.20;;;;;;5031585;28;20833;-85
2023/04/11 10:53:05;;;;;;;3.93;1.50;;;16.00;67.90;;;;;;5035876;28;20926;-79
2023/04/11 10:55:47;;;;;;;0.50;0.40;;;16.20;68.20;;;;;;5035484;28;20560;-78
2023/04/11 10:58:18;;;;;;;0.70;0.70;;;16.80;65.70;;;;;;5023460;28;20446;-79
2023/04/11 11:01:14;;;;;;;0.67;0.67;;;18.10;65.00;;;;;;5037608;28;20438;-80
2023/04/11 11:03:50;;;;;;;0.50;0.40;;;19.30;64.60;;;;;;5029626;28;20566;-81
2023/04/11 11:06:17;;;;;;;0.50;0.40;;;19.30;60.20;;;;;;5037389;28;20450;-81
2023/04/11 11:08:45;;;;;;;0.60;0.60;;;19.10;58.70;;;;;;5037368;28;20446;-81
2023/04/11 11:11:14;;;;;;;0.63;0.53;;;18.80;59.30;;;;;;5037355;28;20751;-82
2023/04/11 11:13:42;;;;;;;0.70;0.60;;;18.20;60.20;;;;;;5028699;28;20445;-81
2023/04/11 11:16:15;;;;;;;1.50;1.40;;;17.70;62.00;;;;;;5036635;28;20897;-81
2023/04/11 11:18:45;;;;;;;3.33;1.50;;;17.90;62.70;;;;;;5036333;28;20457;-81
2023/04/11 11:21:13;;;;;;;0.90;0.50;;;18.20;60.80;;;;;;5023507;28;20442;-80
2023/04/11 11:23:52;;;;;;;4.00;1.47;;;18.00;60.20;;;;;;5034873;28;20516;-80
2023/04/11 11:26:20;;;;;;;0.63;0.53;;;17.00;60.20;;;;;;5050742;28;20445;-81
2023/04/11 11:28:47;;;;;;;1.27;0.70;;;16.50;63.80;;;;;;5053793;28;20449;-81
2023/04/11 11:31:15;;;;;;;0.53;0.43;;;16.90;64.70;;;;;;5045200;28;20439;-80
2023/04/11 11:33:42;;;;;;;1.07;1.07;;;17.00;64.00;;;;;;5035611;28;20442;-80
2023/04/11 11:36:10;;;;;;;0.60;0.57;;;17.50;63.00;;;;;;5037595;28;20449;-81
2023/04/11 11:38:37;;;;;;;1.90;1.23;;;18.00;63.80;;;;;;5036579;28;20901;-80
2023/04/11 11:41:04;;;;;;;0.50;0.40;;;18.60;63.30;;;;;;5036134;28;20442;-81
2023/04/11 11:43:36;;;;;;;3.50;0.87;;;19.40;62.90;;;;;;5036542;28;20482;-81
2023/04/11 11:46:08;;;;;;;0.50;0.30;;;19.40;62.60;;;;;;5013563;28;20941;-81
2023/04/11 11:48:35;;;;;;;0.50;0.40;;;20.30;60.90;;;;;;5028315;28;20447;-79
2023/04/11 11:51:01;;;;;;;0.63;0.63;;;20.90;59.00;;;;;;5036655;28;20452;-81
2023/04/11 11:53:28;;;;;;;0.80;0.67;;;21.50;57.30;;;;;;5036644;28;20446;-81
2023/04/11 11:55:55;;;;;;;3.80;1.93;;;22.00;56.00;;;;;;5027985;28;20442;-82
2023/04/11 11:58:22;;;;;;;0.50;0.40;;;21.70;55.20;;;;;;5036043;28;20446;-81
2023/04/11 12:00:52;;;;;;;2.93;1.63;;;21.20;55.10;;;;;;5035812;28;20510;-81
2023/04/11 12:03:22;;;;;;;1.20;0.60;;;20.80;55.60;;;;;;5036301;28;20565;-80
2023/04/11 12:05:50;;;;;;;0.50;0.40;;;20.40;54.60;;;;;;5025595;28;20456;-82
2023/04/11 12:08:19;;;;;;;1.20;0.60;;;19.90;55.50;;;;;;5032594;28;20462;-80
2023/04/11 12:10:47;;;;;;;0.67;0.40;;;19.30;55.50;;;;;;5035603;28;20790;-81
2023/04/11 12:13:16;;;;;;;0.50;0.40;;;18.60;58.10;;;;;;5029919;28;20463;-80
2023/04/11 12:15:45;;;;;;;0.70;0.70;;;19.20;57.00;;;;;;5033264;28;21122;-77
2023/04/11 12:18:14;;;;;;;0.80;0.50;;;19.70;56.60;;;;;;5036230;28;20442;-80
2023/04/11 12:20:40;;;;;;;0.50;0.30;;;19.00;55.70;;;;;;5035306;28;20882;-79
2023/04/11 12:23:07;;;;;;;0.50;0.30;;;18.60;56.50;;;;;;5028808;28;20477;-81
2023/04/11 12:25:34;;;;;;;0.67;0.50;;;18.00;56.10;;;;;;5034884;28;20442;-78
2023/04/11 12:28:01;;;;;;;0.50;0.30;;;18.10;56.60;;;;;;5035358;28;20450;-79
2023/04/11 12:30:28;;;;;;;0.70;0.70;;;18.90;56.50;;;;;;5027440;28;20474;-80
2023/04/11 12:32:55;;;;;;;0.50;0.40;;;19.90;56.30;;;;;;5026765;28;20545;-81
2023/04/11 12:35:23;;;;;;;0.70;0.50;;;20.10;53.90;;;;;;5034961;28;20447;-81
2023/04/11 12:37:50;;;;;;;3.43;0.43;;;20.50;55.80;;;;;;5034705;28;20469;-81
2023/04/11 12:40:17;;;;;;;0.50;0.40;;;20.70;52.30;;;;;;5035074;28;20438;-80
2023/04/11 12:42:46;;;;;;;1.37;1.10;;;20.90;53.50;;;;;;5034367;28;20492;-80
2023/04/11 12:45:15;;;;;;;0.60;0.40;;;21.20;50.40;;;;;;5034982;28;20449;-80
2023/04/11 12:47:42;;;;;;;0.50;0.40;;;20.90;50.70;;;;;;5034036;28;20446;-81
2023/04/11 12:50:11;;;;;;;0.50;0.30;;;20.90;52.00;;;;;;5034401;28;20942;-81
2023/04/11 12:52:39;;;;;;;0.53;0.40;;;20.80;50.50;;;;;;5034004;28;20594;-80
2023/04/11 12:55:08;;;;;;;0.90;0.60;;;20.60;51.60;;;;;;5035233;28;20865;-76
2023/04/11 12:57:34;;;;;;;3.40;0.93;;;20.50;50.90;;;;;;5034410;28;20460;-80